EVA753 YMML-RCTP
Flight info
| Callsign | EVA753 |
|---|---|
| Flight time | N/A |
| Altitude | 34000 |
| Route | KEPPA H336 NATYA DCT 3200S14145E 3000S14050E DCT MENIG DCT 2400S13755E DCT DUNAN DCT 1800S13450E 1500S13310E DCT BUTPA A461 AMN/N0492F360 R590 COT W21 MCT W11 MIA B462 LAO/N0487F370 M646 POTIB Q14 TNN TNN1A |
| Aircraft | B77W/H-SDE1E2E3FGHIJ2J3J4J5M1RWXY/LB1D1 |
Departure
| Time | 2026-04-30 18:07 |
|---|---|
| Airport | Melbourne Airport (YMML) |
Arrival
| Time | N/A |
|---|---|
| Airport | Taiwan Taoyuan International Airport (RCTP) |
| Time | Latitude | Longitude | Altitude | Speed | Heading |
|---|---|---|---|---|---|
| 2026-04-30 17:39 | -37.66829 | 144.84317 | 396 ft | 0 kts | 81° |
| 2026-04-30 17:50 | -37.66853 | 144.84208 | 390 ft | 4 kts | 25° |
| 2026-04-30 17:51 | -37.66810 | 144.84196 | 391 ft | 4 kts | 352° |
| 2026-04-30 17:52 | -37.66809 | 144.84196 | 391 ft | 0 kts | 352° |
| 2026-04-30 17:54 | -37.66794 | 144.84193 | 397 ft | 2 kts | 352° |
| 2026-04-30 17:55 | -37.66738 | 144.84148 | 397 ft | 5 kts | 295° |
| 2026-04-30 17:56 | -37.66849 | 144.83993 | 391 ft | 8 kts | 174° |
| 2026-04-30 17:57 | -37.67013 | 144.84021 | 389 ft | 9 kts | 169° |
| 2026-04-30 17:58 | -37.67287 | 144.84077 | 381 ft | 17 kts | 174° |
| 2026-04-30 17:59 | -37.67841 | 144.84198 | 368 ft | 21 kts | 140° |
| 2026-04-30 18:00 | -37.68305 | 144.84476 | 358 ft | 21 kts | 174° |
| 2026-04-30 18:00 | -37.68537 | 144.84296 | 352 ft | 0 kts | 238° |
| 2026-04-30 18:02 | -37.68537 | 144.84295 | 352 ft | 0 kts | 238° |
| 2026-04-30 18:04 | -37.68545 | 144.84277 | 345 ft | 8 kts | 242° |
| 2026-04-30 18:05 | -37.67900 | 144.83974 | 363 ft | 105 kts | 352° |
| 2026-04-30 18:06 | -37.63614 | 144.83371 | 1023 ft | 208 kts | 348° |
| 2026-04-30 18:07 | -37.57996 | 144.82137 | 4313 ft | 220 kts | 351° |
| 2026-04-30 18:08 | -37.53860 | 144.79346 | 6135 ft | 243 kts | 321° |
| 2026-04-30 18:09 | -37.48618 | 144.73425 | 9195 ft | 259 kts | 319° |
| 2026-04-30 18:10 | -37.42677 | 144.66775 | 12192 ft | 343 kts | 319° |
| 2026-04-30 18:11 | -37.34978 | 144.58223 | 16081 ft | 378 kts | 319° |
| 2026-04-30 18:11 | -37.28878 | 144.51469 | 18776 ft | 400 kts | 319° |
| 2026-04-30 18:12 | -37.22512 | 144.44442 | 21037 ft | 414 kts | 319° |
| 2026-04-30 18:13 | -37.18132 | 144.39618 | 22442 ft | 424 kts | 319° |
| 2026-04-30 18:13 | -37.12140 | 144.33030 | 24080 ft | 436 kts | 319° |
| 2026-04-30 18:14 | -37.06761 | 144.27127 | 25338 ft | 442 kts | 319° |
| 2026-04-30 18:15 | -36.99742 | 144.19442 | 26765 ft | 451 kts | 319° |
| 2026-04-30 18:15 | -36.92576 | 144.11614 | 28038 ft | 459 kts | 318° |
| 2026-04-30 18:16 | -36.87766 | 144.06372 | 28792 ft | 464 kts | 318° |
| 2026-04-30 18:16 | -36.82865 | 144.01040 | 29469 ft | 469 kts | 318° |
| 2026-04-30 18:17 | -36.80373 | 143.98414 | 29754 ft | 471 kts | 323° |
| 2026-04-30 18:17 | -36.77517 | 143.96413 | 29967 ft | 477 kts | 339° |
| 2026-04-30 18:17 | -36.71155 | 143.93930 | 30500 ft | 478 kts | 341° |
| 2026-04-30 18:18 | -36.67978 | 143.92679 | 30837 ft | 477 kts | 340° |
| 2026-04-30 18:18 | -36.64822 | 143.91410 | 31155 ft | 476 kts | 340° |
| 2026-04-30 18:18 | -36.61677 | 143.90125 | 31452 ft | 476 kts | 340° |
| 2026-04-30 18:18 | -36.58530 | 143.88826 | 31720 ft | 477 kts | 340° |
| 2026-04-30 18:19 | -36.55384 | 143.87523 | 31993 ft | 477 kts | 340° |
| 2026-04-30 18:19 | -36.52228 | 143.86214 | 32208 ft | 479 kts | 340° |
| 2026-04-30 18:19 | -36.49046 | 143.84895 | 32241 ft | 481 kts | 340° |
| 2026-04-30 18:20 | -36.42714 | 143.82278 | 32274 ft | 478 kts | 340° |
| 2026-04-30 18:20 | -36.36456 | 143.79699 | 32283 ft | 476 kts | 340° |
| 2026-04-30 18:21 | -36.30163 | 143.77111 | 32278 ft | 477 kts | 340° |
| 2026-04-30 18:21 | -36.23861 | 143.74523 | 32282 ft | 478 kts | 340° |
| 2026-04-30 18:22 | -36.17534 | 143.71930 | 32276 ft | 478 kts | 340° |
| 2026-04-30 18:22 | -36.08037 | 143.68045 | 32273 ft | 480 kts | 340° |
| 2026-04-30 18:23 | -36.01695 | 143.65456 | 32269 ft | 480 kts | 340° |
| 2026-04-30 18:23 | -35.95333 | 143.62864 | 32271 ft | 481 kts | 340° |
| 2026-04-30 18:24 | -35.85794 | 143.58985 | 32266 ft | 481 kts | 340° |
| 2026-04-30 18:25 | -35.79468 | 143.56418 | 32268 ft | 481 kts | 340° |
| 2026-04-30 18:25 | -35.69913 | 143.52550 | 32262 ft | 482 kts | 340° |
| 2026-04-30 18:26 | -35.60363 | 143.48693 | 32262 ft | 482 kts | 340° |
| 2026-04-30 18:27 | -35.50858 | 143.44863 | 32273 ft | 482 kts | 340° |
| 2026-04-30 18:28 | -35.41258 | 143.41005 | 32259 ft | 482 kts | 340° |
| 2026-04-30 18:28 | -35.31725 | 143.37183 | 32253 ft | 482 kts | 340° |
| 2026-04-30 18:29 | -35.18958 | 143.32080 | 32253 ft | 483 kts | 340° |
| 2026-04-30 18:30 | -35.06178 | 143.26988 | 32247 ft | 483 kts | 340° |
| 2026-04-30 18:31 | -34.96584 | 143.23146 | 32257 ft | 483 kts | 338° |
| 2026-04-30 18:32 | -34.87293 | 143.18380 | 32258 ft | 483 kts | 335° |
| 2026-04-30 18:33 | -34.78045 | 143.13552 | 32251 ft | 484 kts | 335° |
| 2026-04-30 18:33 | -34.68744 | 143.08752 | 32251 ft | 485 kts | 335° |
| 2026-04-30 18:34 | -34.59415 | 143.03958 | 32256 ft | 485 kts | 335° |
| 2026-04-30 18:35 | -34.53193 | 143.00765 | 32250 ft | 485 kts | 335° |
| 2026-04-30 18:35 | -34.46997 | 142.97591 | 32254 ft | 486 kts | 335° |
| 2026-04-30 18:36 | -34.37603 | 142.92787 | 32243 ft | 486 kts | 335° |
| 2026-04-30 18:37 | -34.28281 | 142.88032 | 32244 ft | 487 kts | 335° |
| 2026-04-30 18:37 | -34.23054 | 142.85371 | 32247 ft | 487 kts | 335° |
| 2026-04-30 18:38 | -34.16843 | 142.82213 | 32248 ft | 487 kts | 335° |
| 2026-04-30 18:38 | -34.10586 | 142.79038 | 32244 ft | 487 kts | 335° |
| 2026-04-30 18:39 | -34.04350 | 142.75878 | 32241 ft | 487 kts | 335° |
| 2026-04-30 18:39 | -33.98084 | 142.72708 | 32242 ft | 487 kts | 335° |
| 2026-04-30 18:40 | -33.91833 | 142.69551 | 32242 ft | 487 kts | 335° |
| 2026-04-30 18:40 | -33.85590 | 142.66402 | 32243 ft | 486 kts | 335° |
| 2026-04-30 18:41 | -33.79348 | 142.63259 | 32241 ft | 486 kts | 335° |
| 2026-04-30 18:41 | -33.73102 | 142.60119 | 32240 ft | 486 kts | 335° |
| 2026-04-30 18:42 | -33.66861 | 142.56987 | 32238 ft | 486 kts | 335° |
| 2026-04-30 18:42 | -33.57491 | 142.52293 | 32239 ft | 486 kts | 334° |
| 2026-04-30 18:45 | -33.23192 | 142.35206 | 32234 ft | 486 kts | 334° |
| 2026-04-30 18:46 | -33.16936 | 142.32105 | 32232 ft | 486 kts | 334° |
| 2026-04-30 18:46 | -33.10692 | 142.29014 | 32233 ft | 486 kts | 334° |
| 2026-04-30 18:47 | -33.04445 | 142.25927 | 32230 ft | 486 kts | 334° |
| 2026-04-30 18:47 | -32.98205 | 142.22848 | 32228 ft | 486 kts | 334° |
| 2026-04-30 18:48 | -32.91991 | 142.19787 | 32226 ft | 486 kts | 334° |
| 2026-04-30 18:48 | -32.85740 | 142.16713 | 32230 ft | 486 kts | 334° |
| 2026-04-30 18:49 | -32.79495 | 142.13645 | 32229 ft | 486 kts | 334° |
| 2026-04-30 18:49 | -32.73249 | 142.10582 | 32227 ft | 486 kts | 334° |
| 2026-04-30 18:50 | -32.66984 | 142.07515 | 32224 ft | 486 kts | 334° |
| 2026-04-30 18:50 | -32.60728 | 142.04456 | 32223 ft | 486 kts | 334° |
| 2026-04-30 18:51 | -32.54464 | 142.01398 | 32224 ft | 486 kts | 334° |
| 2026-04-30 18:51 | -32.48240 | 141.98365 | 32227 ft | 486 kts | 334° |
| 2026-04-30 18:52 | -32.41938 | 141.95297 | 32224 ft | 486 kts | 334° |
| 2026-04-30 18:52 | -32.35712 | 141.92271 | 32226 ft | 486 kts | 334° |
| 2026-04-30 18:53 | -32.29458 | 141.89237 | 32224 ft | 486 kts | 334° |
| 2026-04-30 18:53 | -32.23193 | 141.86201 | 32225 ft | 486 kts | 334° |
| 2026-04-30 18:54 | -32.16937 | 141.83174 | 32225 ft | 486 kts | 334° |
| 2026-04-30 18:54 | -32.10663 | 141.80143 | 32225 ft | 486 kts | 334° |
| 2026-04-30 18:55 | -32.04403 | 141.77122 | 32224 ft | 486 kts | 334° |
| 2026-04-30 18:55 | -31.94977 | 141.72621 | 32228 ft | 487 kts | 334° |
| 2026-04-30 18:56 | -31.85526 | 141.68218 | 32228 ft | 487 kts | 334° |
| 2026-04-30 18:57 | -31.76123 | 141.63837 | 32225 ft | 487 kts | 334° |
| 2026-04-30 18:57 | -31.69825 | 141.60902 | 32223 ft | 486 kts | 334° |
| 2026-04-30 18:58 | -31.60391 | 141.56511 | 32222 ft | 486 kts | 334° |
| 2026-04-30 18:59 | -31.50954 | 141.52130 | 32220 ft | 486 kts | 334° |
| 2026-04-30 19:00 | -31.38387 | 141.46310 | 32211 ft | 485 kts | 334° |
| 2026-04-30 19:01 | -31.25863 | 141.40527 | 32215 ft | 485 kts | 334° |
| 2026-04-30 19:02 | -31.16440 | 141.36187 | 32207 ft | 485 kts | 334° |
| 2026-04-30 19:03 | -31.03894 | 141.30423 | 32214 ft | 485 kts | 334° |
| 2026-04-30 19:04 | -30.91336 | 141.24669 | 32202 ft | 484 kts | 334° |
| 2026-04-30 19:05 | -30.78800 | 141.18943 | 32199 ft | 483 kts | 334° |
| 2026-04-30 19:06 | -30.66319 | 141.13256 | 32195 ft | 483 kts | 334° |
| 2026-04-30 19:06 | -30.56954 | 141.09000 | 32196 ft | 483 kts | 334° |
| 2026-04-30 19:07 | -30.47544 | 141.04732 | 32194 ft | 483 kts | 334° |
| 2026-04-30 19:08 | -30.35017 | 140.99064 | 32189 ft | 484 kts | 333° |
| 2026-04-30 19:09 | -30.25628 | 140.94826 | 32188 ft | 485 kts | 333° |
| 2026-04-30 19:09 | -30.19336 | 140.91990 | 32183 ft | 485 kts | 333° |
| 2026-04-30 19:10 | -30.06738 | 140.86325 | 32186 ft | 485 kts | 333° |
| 2026-04-30 19:11 | -29.97308 | 140.82057 | 32179 ft | 485 kts | 332° |
| 2026-04-30 19:12 | -29.91137 | 140.79056 | 32181 ft | 483 kts | 332° |
| 2026-04-30 19:12 | -29.84954 | 140.76006 | 32177 ft | 483 kts | 332° |
| 2026-04-30 19:13 | -29.72588 | 140.69977 | 32169 ft | 482 kts | 332° |
| 2026-04-30 19:14 | -29.66402 | 140.66982 | 32181 ft | 481 kts | 332° |
| 2026-04-30 19:14 | -29.60220 | 140.63994 | 32179 ft | 481 kts | 332° |
| 2026-04-30 19:15 | -29.54060 | 140.61019 | 32174 ft | 480 kts | 332° |
| 2026-04-30 19:15 | -29.44828 | 140.56566 | 32165 ft | 480 kts | 332° |
| 2026-04-30 19:16 | -29.38664 | 140.53599 | 32178 ft | 479 kts | 332° |
| 2026-04-30 19:17 | -29.29469 | 140.49179 | 32168 ft | 479 kts | 332° |
| 2026-04-30 19:17 | -29.20246 | 140.44755 | 32165 ft | 479 kts | 332° |
| 2026-04-30 19:18 | -29.11022 | 140.40338 | 32162 ft | 479 kts | 332° |
| 2026-04-30 19:19 | -29.04887 | 140.37406 | 32164 ft | 479 kts | 332° |
| 2026-04-30 19:19 | -28.95707 | 140.33025 | 32159 ft | 478 kts | 332° |
| 2026-04-30 19:20 | -28.89568 | 140.30100 | 32156 ft | 478 kts | 332° |
| 2026-04-30 19:21 | -28.80372 | 140.25726 | 32157 ft | 477 kts | 332° |
| 2026-04-30 19:22 | -28.68113 | 140.19907 | 32150 ft | 477 kts | 333° |
| 2026-04-30 19:23 | -28.49723 | 140.11206 | 32150 ft | 476 kts | 333° |
| 2026-04-30 19:24 | -28.41579 | 140.07363 | 32152 ft | 476 kts | 333° |
| 2026-04-30 19:25 | -28.26257 | 140.00150 | 32151 ft | 477 kts | 333° |
| 2026-04-30 19:26 | -28.14017 | 139.94405 | 32148 ft | 478 kts | 333° |
| 2026-04-30 19:27 | -28.04784 | 139.90080 | 32143 ft | 478 kts | 333° |
| 2026-04-30 19:28 | -27.95543 | 139.85760 | 32146 ft | 479 kts | 333° |
| 2026-04-30 19:29 | -27.83204 | 139.80004 | 32142 ft | 480 kts | 332° |
| 2026-04-30 19:30 | -27.70871 | 139.74265 | 32136 ft | 481 kts | 332° |
| 2026-04-30 19:31 | -27.58470 | 139.68509 | 32137 ft | 482 kts | 332° |
| 2026-04-30 19:31 | -27.49169 | 139.64200 | 32141 ft | 482 kts | 332° |
| 2026-04-30 19:32 | -27.42960 | 139.61329 | 32137 ft | 483 kts | 332° |
| 2026-04-30 19:32 | -27.36744 | 139.58457 | 32138 ft | 483 kts | 332° |
| 2026-04-30 19:33 | -27.30569 | 139.55608 | 32132 ft | 483 kts | 332° |
| 2026-04-30 19:33 | -27.24341 | 139.52738 | 32132 ft | 483 kts | 332° |
| 2026-04-30 19:34 | -27.18113 | 139.49871 | 32130 ft | 484 kts | 332° |
| 2026-04-30 19:35 | -27.08753 | 139.45570 | 32130 ft | 484 kts | 332° |
| 2026-04-30 19:35 | -27.02516 | 139.42708 | 32129 ft | 484 kts | 332° |
| 2026-04-30 19:36 | -26.96276 | 139.39848 | 32125 ft | 484 kts | 332° |
| 2026-04-30 19:36 | -26.86924 | 139.35567 | 32124 ft | 484 kts | 332° |
| 2026-04-30 19:37 | -26.80687 | 139.32717 | 32128 ft | 483 kts | 332° |
| 2026-04-30 19:37 | -26.74459 | 139.29874 | 32126 ft | 483 kts | 332° |
| 2026-04-30 19:38 | -26.68362 | 139.26876 | 32124 ft | 480 kts | 329° |
| 2026-04-30 19:38 | -26.62317 | 139.23694 | 32125 ft | 480 kts | 328° |
| 2026-04-30 19:39 | -26.56271 | 139.20523 | 32125 ft | 481 kts | 329° |
| 2026-04-30 19:39 | -26.50207 | 139.17386 | 32123 ft | 481 kts | 329° |
| 2026-04-30 19:40 | -26.44119 | 139.14258 | 32121 ft | 481 kts | 329° |
| 2026-04-30 19:40 | -26.38034 | 139.11139 | 32125 ft | 481 kts | 329° |
| 2026-04-30 19:41 | -26.31941 | 139.08017 | 32130 ft | 482 kts | 329° |
| 2026-04-30 19:41 | -26.25859 | 139.04904 | 32122 ft | 482 kts | 329° |
| 2026-04-30 19:42 | -26.19762 | 139.01786 | 32117 ft | 482 kts | 329° |
| 2026-04-30 19:42 | -26.13657 | 138.98667 | 32118 ft | 482 kts | 329° |
| 2026-04-30 19:43 | -26.07559 | 138.95556 | 32119 ft | 482 kts | 329° |
| 2026-04-30 19:44 | -25.98398 | 138.90889 | 32118 ft | 482 kts | 329° |
| 2026-04-30 19:44 | -25.92340 | 138.87807 | 32114 ft | 482 kts | 329° |
| 2026-04-30 19:45 | -25.86231 | 138.84703 | 32116 ft | 482 kts | 329° |
| 2026-04-30 19:45 | -25.80113 | 138.81598 | 32111 ft | 482 kts | 329° |
| 2026-04-30 19:46 | -25.74012 | 138.78504 | 32115 ft | 483 kts | 329° |
| 2026-04-30 19:46 | -25.67900 | 138.75409 | 32112 ft | 483 kts | 329° |
| 2026-04-30 19:47 | -25.61775 | 138.72311 | 32110 ft | 484 kts | 329° |
| 2026-04-30 19:47 | -25.55654 | 138.69217 | 32110 ft | 484 kts | 329° |
| 2026-04-30 19:48 | -25.49555 | 138.66139 | 32110 ft | 484 kts | 329° |
| 2026-04-30 19:48 | -25.43387 | 138.63030 | 32110 ft | 485 kts | 329° |
| 2026-04-30 19:49 | -25.37228 | 138.59928 | 32106 ft | 485 kts | 329° |
| 2026-04-30 19:49 | -25.28050 | 138.55314 | 32105 ft | 486 kts | 329° |
| 2026-04-30 19:50 | -25.21896 | 138.52223 | 32108 ft | 486 kts | 329° |
| 2026-04-30 19:50 | -25.15731 | 138.49131 | 32107 ft | 486 kts | 329° |
| 2026-04-30 19:51 | -25.09555 | 138.46037 | 32102 ft | 486 kts | 329° |
| 2026-04-30 19:51 | -25.03399 | 138.42956 | 32107 ft | 486 kts | 329° |
| 2026-04-30 19:52 | -24.97240 | 138.39877 | 32102 ft | 485 kts | 329° |
| 2026-04-30 19:52 | -24.91089 | 138.36805 | 32104 ft | 485 kts | 329° |
| 2026-04-30 19:53 | -24.84978 | 138.33757 | 32107 ft | 485 kts | 329° |
| 2026-04-30 19:53 | -24.78834 | 138.30695 | 32109 ft | 485 kts | 329° |
| 2026-04-30 19:54 | -24.72688 | 138.27636 | 32103 ft | 485 kts | 329° |
| 2026-04-30 19:54 | -24.66536 | 138.24577 | 32096 ft | 485 kts | 329° |
| 2026-04-30 19:55 | -24.60377 | 138.21518 | 32114 ft | 485 kts | 329° |
| 2026-04-30 19:55 | -24.54214 | 138.18460 | 32094 ft | 485 kts | 329° |
| 2026-04-30 19:56 | -24.48068 | 138.15414 | 32103 ft | 485 kts | 329° |
| 2026-04-30 19:56 | -24.41890 | 138.12356 | 32104 ft | 485 kts | 329° |
| 2026-04-30 19:57 | -24.35774 | 138.09331 | 32103 ft | 485 kts | 329° |
| 2026-04-30 19:57 | -24.29623 | 138.06293 | 32101 ft | 485 kts | 329° |
| 2026-04-30 19:58 | -24.23447 | 138.03244 | 32103 ft | 485 kts | 329° |
| 2026-04-30 19:58 | -24.17290 | 138.00209 | 32099 ft | 485 kts | 329° |
| 2026-04-30 19:59 | -24.11130 | 137.97175 | 32100 ft | 486 kts | 329° |
| 2026-04-30 20:00 | -24.01882 | 137.92626 | 32099 ft | 486 kts | 329° |
| 2026-04-30 20:00 | -23.95726 | 137.89576 | 32100 ft | 486 kts | 329° |
| 2026-04-30 20:01 | -23.86516 | 137.84936 | 32097 ft | 486 kts | 329° |
| 2026-04-30 20:01 | -23.80411 | 137.81864 | 32101 ft | 486 kts | 329° |
| 2026-04-30 20:02 | -23.71195 | 137.77242 | 32094 ft | 486 kts | 329° |
| 2026-04-30 20:03 | -23.61968 | 137.72625 | 32097 ft | 486 kts | 329° |
| 2026-04-30 20:03 | -23.55824 | 137.69554 | 32109 ft | 486 kts | 329° |
| 2026-04-30 20:04 | -23.49671 | 137.66483 | 32090 ft | 486 kts | 329° |
| 2026-04-30 20:05 | -23.40459 | 137.61889 | 32099 ft | 486 kts | 329° |
| 2026-04-30 20:05 | -23.31250 | 137.57304 | 32099 ft | 486 kts | 329° |
| 2026-04-30 20:06 | -23.25105 | 137.54248 | 32100 ft | 486 kts | 329° |
| 2026-04-30 20:06 | -23.18946 | 137.51189 | 32102 ft | 486 kts | 329° |
| 2026-04-30 20:07 | -23.12794 | 137.48136 | 32094 ft | 486 kts | 330° |
| 2026-04-30 20:08 | -23.03560 | 137.43560 | 32098 ft | 486 kts | 330° |
| 2026-04-30 20:08 | -22.97398 | 137.40510 | 32100 ft | 486 kts | 330° |
| 2026-04-30 20:09 | -22.91245 | 137.37467 | 32098 ft | 486 kts | 330° |
| 2026-04-30 20:09 | -22.82036 | 137.32919 | 32093 ft | 487 kts | 330° |
| 2026-04-30 20:10 | -22.72790 | 137.28360 | 32097 ft | 487 kts | 330° |
| 2026-04-30 20:11 | -22.63552 | 137.23811 | 32093 ft | 487 kts | 330° |
| 2026-04-30 20:11 | -22.58418 | 137.21286 | 32091 ft | 487 kts | 330° |
| 2026-04-30 20:12 | -22.49151 | 137.16734 | 32090 ft | 487 kts | 330° |
| 2026-04-30 20:13 | -22.42981 | 137.13706 | 32094 ft | 487 kts | 330° |
| 2026-04-30 20:13 | -22.36792 | 137.10673 | 32093 ft | 487 kts | 330° |
| 2026-04-30 20:14 | -22.30616 | 137.07648 | 32093 ft | 488 kts | 330° |
| 2026-04-30 20:14 | -22.24427 | 137.04621 | 32091 ft | 488 kts | 330° |
| 2026-04-30 20:15 | -22.18243 | 137.01598 | 32094 ft | 488 kts | 330° |
| 2026-04-30 20:15 | -22.12049 | 136.98574 | 32093 ft | 488 kts | 330° |
| 2026-04-30 20:16 | -22.05896 | 136.95572 | 32092 ft | 489 kts | 330° |
| 2026-04-30 20:16 | -21.99700 | 136.92553 | 32091 ft | 489 kts | 330° |
| 2026-04-30 20:17 | -21.93497 | 136.89533 | 32095 ft | 489 kts | 330° |
| 2026-04-30 20:17 | -21.87307 | 136.86522 | 32090 ft | 489 kts | 330° |
| 2026-04-30 20:18 | -21.81089 | 136.83501 | 32091 ft | 489 kts | 330° |
| 2026-04-30 20:18 | -21.74886 | 136.80489 | 32088 ft | 490 kts | 330° |
| 2026-04-30 20:19 | -21.68674 | 136.77476 | 32085 ft | 490 kts | 330° |
| 2026-04-30 20:19 | -21.62452 | 136.74461 | 32085 ft | 490 kts | 330° |
| 2026-04-30 20:20 | -21.56275 | 136.71471 | 32085 ft | 490 kts | 330° |
| 2026-04-30 20:20 | -21.50012 | 136.68442 | 32084 ft | 490 kts | 330° |
| 2026-04-30 20:21 | -21.43837 | 136.65458 | 32083 ft | 490 kts | 330° |
| 2026-04-30 20:21 | -21.37574 | 136.62434 | 32083 ft | 490 kts | 330° |
| 2026-04-30 20:22 | -21.31384 | 136.59448 | 32080 ft | 491 kts | 330° |
| 2026-04-30 20:22 | -21.25149 | 136.56438 | 32074 ft | 490 kts | 330° |
| 2026-04-30 20:23 | -21.19049 | 136.53206 | 32072 ft | 489 kts | 327° |
| 2026-04-30 20:23 | -21.13013 | 136.49842 | 32086 ft | 489 kts | 327° |
| 2026-04-30 20:24 | -21.06957 | 136.46495 | 32090 ft | 489 kts | 328° |
| 2026-04-30 20:24 | -21.00934 | 136.43210 | 32076 ft | 490 kts | 328° |
| 2026-04-30 20:25 | -20.91815 | 136.38266 | 32081 ft | 490 kts | 328° |
| 2026-04-30 20:26 | -20.82679 | 136.33320 | 32076 ft | 490 kts | 328° |
| 2026-04-30 20:26 | -20.73550 | 136.28380 | 32080 ft | 490 kts | 328° |
| 2026-04-30 20:27 | -20.61372 | 136.21802 | 32075 ft | 491 kts | 328° |
| 2026-04-30 20:28 | -20.49172 | 136.15223 | 32071 ft | 491 kts | 328° |
| 2026-04-30 20:30 | -20.33950 | 136.07031 | 32070 ft | 491 kts | 328° |
| 2026-04-30 20:31 | -20.15611 | 135.97187 | 32069 ft | 492 kts | 328° |
| 2026-04-30 20:32 | -20.00326 | 135.89001 | 32066 ft | 492 kts | 329° |
| 2026-04-30 20:33 | -19.91171 | 135.84107 | 32068 ft | 492 kts | 329° |
| 2026-04-30 20:34 | -19.81987 | 135.79204 | 32065 ft | 493 kts | 329° |
| 2026-04-30 20:35 | -19.72792 | 135.74301 | 32065 ft | 493 kts | 329° |
| 2026-04-30 20:35 | -19.63594 | 135.69403 | 32064 ft | 493 kts | 329° |
| 2026-04-30 20:36 | -19.57459 | 135.66140 | 32060 ft | 493 kts | 329° |
| 2026-04-30 20:37 | -19.48242 | 135.61242 | 32062 ft | 493 kts | 329° |
| 2026-04-30 20:37 | -19.42108 | 135.57986 | 32062 ft | 493 kts | 329° |
| 2026-04-30 20:38 | -19.35964 | 135.54728 | 32061 ft | 493 kts | 329° |
| 2026-04-30 20:38 | -19.29859 | 135.51493 | 32060 ft | 493 kts | 329° |
| 2026-04-30 20:39 | -19.20639 | 135.46612 | 32057 ft | 493 kts | 329° |
| 2026-04-30 20:40 | -19.11416 | 135.41736 | 32057 ft | 494 kts | 329° |
| 2026-04-30 20:40 | -19.05282 | 135.38497 | 32059 ft | 494 kts | 329° |
| 2026-04-30 20:41 | -18.96050 | 135.33626 | 32067 ft | 494 kts | 330° |
| 2026-04-30 20:41 | -18.89907 | 135.30388 | 32054 ft | 494 kts | 330° |
| 2026-04-30 20:42 | -18.83740 | 135.27141 | 32054 ft | 494 kts | 330° |
| 2026-04-30 20:43 | -18.74497 | 135.22278 | 32059 ft | 495 kts | 330° |
| 2026-04-30 20:43 | -18.68323 | 135.19034 | 32044 ft | 495 kts | 330° |
| 2026-04-30 20:44 | -18.59103 | 135.14193 | 32056 ft | 496 kts | 330° |
| 2026-04-30 20:45 | -18.46728 | 135.07706 | 32047 ft | 497 kts | 330° |
| 2026-04-30 20:45 | -18.40553 | 135.04473 | 32053 ft | 497 kts | 330° |
| 2026-04-30 20:46 | -18.28136 | 134.97979 | 32050 ft | 497 kts | 330° |
| 2026-04-30 20:47 | -18.18835 | 134.93121 | 32045 ft | 497 kts | 330° |
| 2026-04-30 20:48 | -18.09537 | 134.88271 | 32045 ft | 497 kts | 330° |
| 2026-04-30 20:48 | -18.03330 | 134.85036 | 32048 ft | 497 kts | 330° |
| 2026-04-30 20:49 | -17.97153 | 134.81775 | 32048 ft | 497 kts | 329° |
| 2026-04-30 20:50 | -17.88074 | 134.76618 | 32041 ft | 496 kts | 328° |
| 2026-04-30 20:50 | -17.82017 | 134.73156 | 32042 ft | 496 kts | 329° |
| 2026-04-30 20:51 | -17.75940 | 134.69715 | 32048 ft | 496 kts | 329° |
| 2026-04-30 20:51 | -17.66816 | 134.64577 | 32042 ft | 497 kts | 329° |
| 2026-04-30 20:52 | -17.60709 | 134.61141 | 32042 ft | 497 kts | 329° |
| 2026-04-30 20:53 | -17.51605 | 134.56021 | 32044 ft | 497 kts | 329° |
| 2026-04-30 20:53 | -17.45472 | 134.52575 | 32044 ft | 497 kts | 329° |
| 2026-04-30 20:54 | -17.36377 | 134.47470 | 32041 ft | 497 kts | 329° |
| 2026-04-30 20:55 | -17.27219 | 134.42335 | 32037 ft | 497 kts | 329° |
| 2026-04-30 20:55 | -17.21119 | 134.38918 | 32038 ft | 497 kts | 329° |
| 2026-04-30 20:56 | -17.11987 | 134.33808 | 32038 ft | 497 kts | 329° |
| 2026-04-30 20:57 | -17.02845 | 134.28698 | 32035 ft | 497 kts | 329° |
| 2026-04-30 20:57 | -16.97777 | 134.25867 | 32036 ft | 497 kts | 329° |
| 2026-04-30 20:58 | -16.88635 | 134.20766 | 32033 ft | 496 kts | 329° |
| 2026-04-30 20:58 | -16.82550 | 134.17373 | 32031 ft | 496 kts | 329° |
| 2026-04-30 20:59 | -16.73424 | 134.12290 | 32038 ft | 495 kts | 329° |
| 2026-04-30 21:00 | -16.61248 | 134.05517 | 32039 ft | 495 kts | 329° |
| 2026-04-30 21:01 | -16.52164 | 134.00469 | 32035 ft | 494 kts | 329° |
| 2026-04-30 21:02 | -16.43052 | 133.95413 | 32029 ft | 494 kts | 329° |
| 2026-04-30 21:02 | -16.36990 | 133.92051 | 32030 ft | 494 kts | 329° |
| 2026-04-30 21:03 | -16.30932 | 133.88694 | 32030 ft | 493 kts | 329° |
| 2026-04-30 21:03 | -16.24865 | 133.85335 | 32030 ft | 493 kts | 330° |
| 2026-04-30 21:04 | -16.18807 | 133.81983 | 32026 ft | 493 kts | 330° |
| 2026-04-30 21:04 | -16.09752 | 133.76977 | 32025 ft | 492 kts | 330° |
| 2026-04-30 21:05 | -16.03708 | 133.73638 | 32029 ft | 492 kts | 330° |
| 2026-04-30 21:05 | -15.97647 | 133.70293 | 32019 ft | 492 kts | 330° |
| 2026-04-30 21:06 | -15.91595 | 133.66954 | 32022 ft | 492 kts | 330° |
| 2026-04-30 21:06 | -15.85551 | 133.63623 | 32023 ft | 492 kts | 330° |
| 2026-04-30 21:07 | -15.79493 | 133.60286 | 32018 ft | 492 kts | 330° |
| 2026-04-30 21:07 | -15.73442 | 133.56955 | 32018 ft | 492 kts | 330° |
| 2026-04-30 21:08 | -15.67371 | 133.53615 | 32017 ft | 492 kts | 330° |
| 2026-04-30 21:08 | -15.61326 | 133.50292 | 32018 ft | 492 kts | 330° |
| 2026-04-30 21:09 | -15.55288 | 133.46975 | 32015 ft | 492 kts | 330° |
| 2026-04-30 21:09 | -15.49274 | 133.43673 | 32013 ft | 491 kts | 330° |
| 2026-04-30 21:10 | -15.43193 | 133.40337 | 32013 ft | 491 kts | 330° |
| 2026-04-30 21:10 | -15.37194 | 133.37048 | 32010 ft | 490 kts | 330° |
| 2026-04-30 21:11 | -15.31170 | 133.33747 | 32008 ft | 490 kts | 330° |
| 2026-04-30 21:11 | -15.25146 | 133.30449 | 32014 ft | 489 kts | 330° |
| 2026-04-30 21:12 | -15.19137 | 133.27161 | 32008 ft | 488 kts | 330° |
| 2026-04-30 21:12 | -15.13132 | 133.23877 | 32011 ft | 487 kts | 329° |
| 2026-04-30 21:13 | -15.07134 | 133.20598 | 32010 ft | 487 kts | 329° |
| 2026-04-30 21:13 | -15.01147 | 133.17328 | 32010 ft | 486 kts | 329° |
| 2026-04-30 21:14 | -14.95217 | 133.14057 | 32012 ft | 486 kts | 329° |
| 2026-04-30 21:14 | -14.89234 | 133.10709 | 32014 ft | 485 kts | 329° |
| 2026-04-30 21:15 | -14.83335 | 133.07406 | 32014 ft | 485 kts | 329° |
| 2026-04-30 21:15 | -14.77415 | 133.04100 | 32010 ft | 485 kts | 329° |
| 2026-04-30 21:16 | -14.71438 | 133.00768 | 32014 ft | 486 kts | 329° |
| 2026-04-30 21:16 | -14.65488 | 132.97456 | 32012 ft | 486 kts | 329° |
| 2026-04-30 21:17 | -14.59532 | 132.94141 | 32011 ft | 486 kts | 329° |
| 2026-04-30 21:17 | -14.53618 | 132.90851 | 32012 ft | 486 kts | 329° |
| 2026-04-30 21:18 | -14.47662 | 132.87540 | 32012 ft | 486 kts | 329° |
| 2026-04-30 21:18 | -14.41722 | 132.84240 | 32008 ft | 485 kts | 329° |
| 2026-04-30 21:19 | -14.35769 | 132.80935 | 32010 ft | 485 kts | 329° |
| 2026-04-30 21:19 | -14.29821 | 132.77635 | 32008 ft | 485 kts | 329° |
| 2026-04-30 21:20 | -14.23876 | 132.74337 | 32009 ft | 485 kts | 329° |
| 2026-04-30 21:20 | -14.17935 | 132.71045 | 32007 ft | 485 kts | 329° |
| 2026-04-30 21:21 | -14.12003 | 132.67759 | 32004 ft | 484 kts | 329° |
| 2026-04-30 21:22 | -14.03089 | 132.62826 | 32002 ft | 484 kts | 329° |
| 2026-04-30 21:23 | -13.91525 | 132.56431 | 32002 ft | 484 kts | 329° |
| 2026-04-30 21:23 | -13.82614 | 132.51510 | 32000 ft | 484 kts | 329° |
| 2026-04-30 21:24 | -13.76675 | 132.48232 | 31999 ft | 484 kts | 329° |
| 2026-04-30 21:24 | -13.70741 | 132.44958 | 31996 ft | 484 kts | 329° |
| 2026-04-30 21:25 | -13.61830 | 132.40046 | 31992 ft | 484 kts | 329° |
| 2026-04-30 21:26 | -13.52910 | 132.35133 | 31985 ft | 484 kts | 329° |
| 2026-04-30 21:27 | -13.44002 | 132.30234 | 31985 ft | 484 kts | 329° |
| 2026-04-30 21:27 | -13.38061 | 132.26967 | 31982 ft | 484 kts | 329° |
| 2026-04-30 21:28 | -13.29147 | 132.22066 | 31977 ft | 484 kts | 329° |
| 2026-04-30 21:29 | -13.20271 | 132.17192 | 31980 ft | 484 kts | 329° |
| 2026-04-30 21:30 | -13.05395 | 132.09035 | 31975 ft | 485 kts | 329° |
| 2026-04-30 21:31 | -12.90549 | 132.00904 | 31977 ft | 485 kts | 329° |
| 2026-04-30 21:32 | -12.81607 | 131.96011 | 31978 ft | 486 kts | 329° |
| 2026-04-30 21:32 | -12.75632 | 131.92745 | 31971 ft | 486 kts | 329° |
| 2026-04-30 21:33 | -12.66671 | 131.87850 | 31976 ft | 486 kts | 329° |
| 2026-04-30 21:34 | -12.60702 | 131.84590 | 31976 ft | 486 kts | 329° |
| 2026-04-30 21:34 | -12.51724 | 131.79692 | 31975 ft | 487 kts | 329° |
| 2026-04-30 21:35 | -12.45778 | 131.76449 | 31978 ft | 488 kts | 329° |
| 2026-04-30 21:35 | -12.39786 | 131.73184 | 31972 ft | 488 kts | 329° |
| 2026-04-30 21:36 | -12.33776 | 131.69911 | 31975 ft | 488 kts | 329° |
| 2026-04-30 21:37 | -12.21769 | 131.63376 | 31973 ft | 489 kts | 330° |
| 2026-04-30 21:37 | -12.15800 | 131.60130 | 31969 ft | 489 kts | 330° |
| 2026-04-30 21:38 | -12.09791 | 131.56863 | 31971 ft | 489 kts | 330° |
| 2026-04-30 21:38 | -12.03778 | 131.53596 | 31966 ft | 490 kts | 330° |
| 2026-04-30 21:39 | -11.97755 | 131.50326 | 31964 ft | 490 kts | 330° |
| 2026-04-30 21:39 | -11.91732 | 131.47057 | 31973 ft | 490 kts | 330° |
| 2026-04-30 21:40 | -11.85700 | 131.43785 | 31968 ft | 491 kts | 330° |
| 2026-04-30 21:40 | -11.79674 | 131.40518 | 31974 ft | 491 kts | 330° |
| 2026-04-30 21:41 | -11.73641 | 131.37249 | 31967 ft | 491 kts | 330° |
| 2026-04-30 21:41 | -11.67606 | 131.33980 | 31970 ft | 491 kts | 330° |
| 2026-04-30 21:42 | -11.61562 | 131.30708 | 31975 ft | 492 kts | 330° |
| 2026-04-30 21:42 | -11.55504 | 131.27430 | 31984 ft | 492 kts | 330° |
| 2026-04-30 21:43 | -11.50481 | 131.24713 | 31974 ft | 492 kts | 330° |
| 2026-04-30 21:43 | -11.44427 | 131.21440 | 31967 ft | 492 kts | 330° |
| 2026-04-30 21:44 | -11.37392 | 131.17639 | 31957 ft | 492 kts | 330° |
| 2026-04-30 21:44 | -11.32312 | 131.14895 | 31977 ft | 493 kts | 330° |
| 2026-04-30 21:45 | -11.26312 | 131.11657 | 31973 ft | 493 kts | 330° |
| 2026-04-30 21:45 | -11.20233 | 131.08376 | 31961 ft | 493 kts | 330° |
| 2026-04-30 21:46 | -11.14170 | 131.05107 | 31971 ft | 493 kts | 330° |
| 2026-04-30 21:46 | -11.08101 | 131.01835 | 31974 ft | 493 kts | 330° |
| 2026-04-30 21:47 | -11.02048 | 130.98574 | 31956 ft | 493 kts | 330° |
| 2026-04-30 21:47 | -10.95984 | 130.95309 | 31972 ft | 493 kts | 330° |
| 2026-04-30 21:48 | -10.89930 | 130.92050 | 31968 ft | 492 kts | 330° |
| 2026-04-30 21:48 | -10.83871 | 130.88790 | 31972 ft | 492 kts | 330° |
| 2026-04-30 21:49 | -10.77825 | 130.85538 | 31967 ft | 492 kts | 330° |
| 2026-04-30 21:49 | -10.71802 | 130.82300 | 31969 ft | 492 kts | 330° |
| 2026-04-30 21:50 | -10.65748 | 130.79047 | 31965 ft | 492 kts | 330° |
| 2026-04-30 21:50 | -10.59696 | 130.75796 | 31964 ft | 492 kts | 330° |
| 2026-04-30 21:51 | -10.53652 | 130.72551 | 31967 ft | 492 kts | 330° |
| 2026-04-30 21:51 | -10.47591 | 130.69300 | 31964 ft | 492 kts | 330° |
| 2026-04-30 21:52 | -10.41530 | 130.66048 | 31961 ft | 492 kts | 330° |
| 2026-04-30 21:52 | -10.35472 | 130.62801 | 31962 ft | 492 kts | 330° |
| 2026-04-30 21:53 | -10.29412 | 130.59555 | 31960 ft | 491 kts | 330° |
| 2026-04-30 21:53 | -10.23366 | 130.56316 | 31961 ft | 491 kts | 330° |
| 2026-04-30 21:54 | -10.17375 | 130.53110 | 31960 ft | 491 kts | 330° |
| 2026-04-30 21:54 | -10.11328 | 130.49873 | 31958 ft | 491 kts | 330° |
| 2026-04-30 21:55 | -10.05262 | 130.46628 | 31961 ft | 492 kts | 330° |
| 2026-04-30 21:55 | -9.99196 | 130.43384 | 31961 ft | 493 kts | 330° |
| 2026-04-30 21:56 | -9.93117 | 130.40134 | 31957 ft | 494 kts | 330° |
| 2026-04-30 21:56 | -9.87030 | 130.36880 | 31957 ft | 495 kts | 331° |
| 2026-04-30 21:57 | -9.80966 | 130.33641 | 31957 ft | 496 kts | 330° |
| 2026-04-30 21:57 | -9.74864 | 130.30385 | 31953 ft | 497 kts | 331° |
| 2026-04-30 21:58 | -9.68736 | 130.27116 | 31951 ft | 497 kts | 330° |
| 2026-04-30 21:58 | -9.62614 | 130.23852 | 31948 ft | 497 kts | 331° |
| 2026-04-30 21:59 | -9.56490 | 130.20587 | 31953 ft | 497 kts | 331° |
| 2026-04-30 22:00 | -9.47338 | 130.15709 | 31954 ft | 497 kts | 331° |
| 2026-04-30 22:00 | -9.38151 | 130.10816 | 31948 ft | 497 kts | 331° |
| 2026-04-30 22:01 | -9.32016 | 130.07551 | 31952 ft | 497 kts | 331° |
| 2026-04-30 22:01 | -9.25889 | 130.04291 | 31949 ft | 498 kts | 331° |
| 2026-04-30 22:02 | -9.19781 | 130.01041 | 31947 ft | 498 kts | 331° |
| 2026-04-30 22:02 | -9.13607 | 129.97760 | 31950 ft | 498 kts | 331° |
| 2026-04-30 22:03 | -9.07505 | 129.94517 | 31948 ft | 498 kts | 331° |
| 2026-04-30 22:03 | -9.01374 | 129.91260 | 31950 ft | 498 kts | 331° |
| 2026-04-30 22:04 | -8.95230 | 129.87996 | 31943 ft | 498 kts | 330° |
| 2026-04-30 22:05 | -8.86012 | 129.83104 | 31952 ft | 498 kts | 331° |
| 2026-04-30 22:05 | -8.79867 | 129.79844 | 31950 ft | 499 kts | 331° |
| 2026-04-30 22:06 | -8.73710 | 129.76577 | 31945 ft | 499 kts | 331° |
| 2026-04-30 22:06 | -8.64471 | 129.71679 | 31946 ft | 500 kts | 331° |
| 2026-04-30 22:07 | -8.58312 | 129.68414 | 31945 ft | 500 kts | 331° |
| 2026-04-30 22:07 | -8.51953 | 129.65561 | 31939 ft | 502 kts | 341° |
| 2026-04-30 22:08 | -8.45244 | 129.63546 | 31946 ft | 502 kts | 343° |
| 2026-04-30 22:08 | -8.38570 | 129.61589 | 31945 ft | 502 kts | 343° |
| 2026-04-30 22:09 | -8.31864 | 129.59588 | 31945 ft | 502 kts | 343° |
| 2026-04-30 22:09 | -8.25167 | 129.57564 | 31946 ft | 502 kts | 343° |
| 2026-04-30 22:10 | -8.18467 | 129.55533 | 31944 ft | 501 kts | 343° |
| 2026-04-30 22:10 | -8.11829 | 129.53522 | 31943 ft | 501 kts | 343° |
| 2026-04-30 22:11 | -8.01804 | 129.50490 | 31942 ft | 500 kts | 343° |
| 2026-04-30 22:12 | -7.95139 | 129.48476 | 31942 ft | 500 kts | 343° |
| 2026-04-30 22:12 | -7.88456 | 129.46457 | 31939 ft | 500 kts | 343° |
| 2026-04-30 22:13 | -7.81837 | 129.44457 | 31938 ft | 500 kts | 343° |
| 2026-04-30 22:13 | -7.75165 | 129.42443 | 31944 ft | 500 kts | 343° |
| 2026-04-30 22:14 | -7.68496 | 129.40430 | 31943 ft | 500 kts | 343° |
| 2026-04-30 22:14 | -7.61840 | 129.38421 | 31942 ft | 500 kts | 343° |
| 2026-04-30 22:15 | -7.55169 | 129.36409 | 31941 ft | 500 kts | 343° |
| 2026-04-30 22:15 | -7.48513 | 129.34402 | 31938 ft | 500 kts | 344° |
| 2026-04-30 22:16 | -7.41833 | 129.32388 | 31937 ft | 500 kts | 344° |
| 2026-04-30 22:17 | -7.28557 | 129.28388 | 31940 ft | 499 kts | 344° |
| 2026-04-30 22:17 | -7.18567 | 129.25379 | 31938 ft | 499 kts | 344° |
| 2026-04-30 22:18 | -7.08574 | 129.22371 | 31941 ft | 499 kts | 344° |
| 2026-04-30 22:19 | -6.98587 | 129.19367 | 31936 ft | 500 kts | 344° |
| 2026-04-30 22:20 | -6.88581 | 129.16357 | 31938 ft | 500 kts | 344° |
| 2026-04-30 22:20 | -6.78604 | 129.13358 | 31936 ft | 500 kts | 344° |
| 2026-04-30 22:21 | -6.71935 | 129.11354 | 31921 ft | 501 kts | 344° |
| 2026-04-30 22:21 | -6.65262 | 129.09350 | 31925 ft | 501 kts | 344° |
| 2026-04-30 22:22 | -6.58580 | 129.07342 | 31940 ft | 501 kts | 345° |
| 2026-04-30 22:22 | -6.51910 | 129.05340 | 31937 ft | 501 kts | 345° |
| 2026-04-30 22:23 | -6.45214 | 129.03330 | 31938 ft | 501 kts | 345° |
| 2026-04-30 22:23 | -6.38537 | 129.01326 | 31936 ft | 501 kts | 345° |
| 2026-04-30 22:24 | -6.31847 | 128.99319 | 31941 ft | 501 kts | 345° |
| 2026-04-30 22:24 | -6.25215 | 128.97330 | 31938 ft | 501 kts | 345° |
| 2026-04-30 22:25 | -6.18520 | 128.95322 | 31927 ft | 501 kts | 345° |
| 2026-04-30 22:25 | -6.11855 | 128.93324 | 31928 ft | 501 kts | 345° |
| 2026-04-30 22:26 | -6.01864 | 128.90331 | 31927 ft | 501 kts | 345° |
| 2026-04-30 22:27 | -5.95176 | 128.88327 | 31926 ft | 501 kts | 345° |
| 2026-04-30 22:27 | -5.85150 | 128.85324 | 31935 ft | 501 kts | 345° |
| 2026-04-30 22:28 | -5.75139 | 128.82328 | 31934 ft | 501 kts | 345° |
| 2026-04-30 22:29 | -5.61759 | 128.78324 | 31934 ft | 501 kts | 345° |
| 2026-04-30 22:31 | -5.38399 | 128.71339 | 31931 ft | 501 kts | 345° |
| 2026-04-30 22:32 | -5.22806 | 128.66678 | 31924 ft | 501 kts | 345° |
| 2026-04-30 22:33 | -5.06082 | 128.61684 | 31932 ft | 501 kts | 345° |
| 2026-04-30 22:35 | -4.89385 | 128.56699 | 31935 ft | 502 kts | 345° |
| 2026-04-30 22:36 | -4.72658 | 128.51709 | 31936 ft | 501 kts | 345° |
| 2026-04-30 22:37 | -4.59309 | 128.47728 | 31934 ft | 500 kts | 345° |
| 2026-04-30 22:38 | -4.46015 | 128.43764 | 31933 ft | 500 kts | 345° |
| 2026-04-30 22:39 | -4.36003 | 128.40782 | 31938 ft | 501 kts | 345° |
| 2026-04-30 22:40 | -4.15968 | 128.34813 | 31935 ft | 502 kts | 345° |
| 2026-04-30 22:41 | -3.99405 | 128.29881 | 31936 ft | 503 kts | 345° |
| 2026-04-30 22:43 | -3.79284 | 128.23893 | 31909 ft | 502 kts | 344° |
| 2026-04-30 22:44 | -3.65887 | 128.19906 | 31912 ft | 501 kts | 344° |
| 2026-04-30 22:45 | -3.46264 | 128.12711 | 31917 ft | 502 kts | 340° |
| 2026-04-30 22:47 | -3.26694 | 128.05089 | 31931 ft | 503 kts | 340° |
| 2026-04-30 22:48 | -3.13674 | 128.00038 | 31923 ft | 503 kts | 340° |
| 2026-04-30 22:49 | -2.94130 | 127.92456 | 31944 ft | 502 kts | 340° |
| 2026-04-30 22:51 | -2.74536 | 127.84859 | 31939 ft | 505 kts | 340° |
| 2026-04-30 22:52 | -2.64695 | 127.81043 | 31920 ft | 506 kts | 340° |
| 2026-04-30 22:53 | -2.51557 | 127.75951 | 31932 ft | 505 kts | 340° |
| 2026-04-30 22:53 | -2.41770 | 127.72158 | 31919 ft | 505 kts | 340° |
| 2026-04-30 22:55 | -2.25369 | 127.65803 | 31926 ft | 505 kts | 340° |
| 2026-04-30 22:56 | -2.12254 | 127.60723 | 31934 ft | 506 kts | 340° |
| 2026-04-30 22:57 | -1.95824 | 127.54360 | 31929 ft | 506 kts | 340° |
| 2026-04-30 22:58 | -1.82720 | 127.49285 | 31943 ft | 506 kts | 340° |
| 2026-04-30 22:59 | -1.62990 | 127.41647 | 31945 ft | 507 kts | 340° |